createdAt,value
2023-11-12T00:00:37.916Z,3.40
2023-11-12T00:03:24.998Z,3.20
2023-11-12T00:05:52.504Z,3.10
2023-11-12T00:08:19.505Z,3.30
2023-11-12T00:10:47.528Z,2.50
2023-11-12T00:13:14.479Z,3.10
2023-11-12T00:15:41.611Z,2.90
2023-11-12T00:18:08.592Z,2.70
2023-11-12T00:20:35.608Z,2.10
2023-11-12T00:23:02.908Z,4.40
2023-11-12T00:25:29.915Z,3.80
2023-11-12T00:27:57.981Z,3.00
2023-11-12T00:30:24.927Z,3.00
2023-11-12T00:32:53.423Z,3.30
2023-11-12T00:35:20.479Z,3.30
2023-11-12T00:37:47.680Z,2.70
2023-11-12T00:40:14.855Z,2.40
2023-11-12T00:42:41.595Z,3.00
2023-11-12T00:45:09.380Z,2.60
2023-11-12T00:47:36.077Z,3.70
2023-11-12T00:50:04.310Z,2.80
2023-11-12T00:52:31.326Z,2.10
2023-11-12T00:54:58.165Z,2.80
2023-11-12T00:57:25.214Z,3.50
2023-11-12T00:59:52.203Z,3.70
2023-11-12T01:02:19.284Z,2.50
2023-11-12T01:04:46.997Z,1.70
2023-11-12T01:07:13.944Z,2.70
2023-11-12T01:09:41.069Z,2.40
2023-11-12T01:12:09.684Z,2.60
2023-11-12T01:14:36.755Z,2.00
2023-11-12T01:17:06.029Z,1.80
2023-11-12T01:19:33.356Z,2.20
2023-11-12T01:22:00.293Z,2.90
2023-11-12T01:24:27.389Z,2.60
2023-11-12T01:26:54.594Z,1.80
2023-11-12T01:29:21.855Z,2.10
2023-11-12T01:31:48.864Z,2.60
2023-11-12T01:34:16.056Z,2.40
2023-11-12T01:36:43.193Z,2.30
2023-11-12T01:39:10.101Z,2.90
2023-11-12T01:41:37.705Z,2.10
2023-11-12T01:44:04.882Z,2.20
2023-11-12T01:46:33.215Z,2.40
2023-11-12T01:49:00.920Z,2.70
2023-11-12T01:51:32.427Z,2.60
2023-11-12T01:54:00.721Z,3.20
2023-11-12T01:56:29.413Z,2.40
2023-11-12T01:58:59.227Z,4.30
2023-11-12T02:01:26.730Z,1.70
2023-11-12T02:03:55.205Z,2.90
2023-11-12T02:06:22.565Z,2.10
2023-11-12T02:08:49.571Z,2.60
2023-11-12T02:11:17.220Z,2.20
2023-11-12T02:13:44.300Z,1.90
2023-11-12T02:16:11.386Z,1.70
2023-11-12T02:18:38.763Z,1.80
2023-11-12T02:21:06.203Z,3.80
2023-11-12T02:23:38.619Z,2.00
2023-11-12T02:26:05.657Z,2.00
2023-11-12T02:28:32.615Z,1.90
2023-11-12T02:30:59.464Z,1.90
2023-11-12T02:33:28.458Z,3.90
2023-11-12T02:35:56.416Z,2.40
2023-11-12T02:38:24.274Z,3.00
2023-11-12T02:40:52.358Z,2.20
2023-11-12T02:43:20.833Z,3.30
2023-11-12T02:45:48.160Z,2.20
2023-11-12T02:48:15.171Z,1.70
2023-11-12T02:50:42.284Z,2.30
2023-11-12T02:53:11.175Z,1.50
2023-11-12T02:55:38.476Z,3.60
2023-11-12T02:58:05.631Z,2.60
2023-11-12T03:00:33.827Z,1.80
2023-11-12T03:03:02.589Z,3.40
2023-11-12T03:05:32.200Z,1.50
2023-11-12T03:07:59.484Z,1.40
2023-11-12T03:10:27.058Z,1.60
2023-11-12T03:12:54.799Z,1.80
2023-11-12T03:15:24.452Z,2.00
2023-11-12T03:17:51.961Z,4.90
2023-11-12T03:20:19.282Z,2.00
2023-11-12T03:22:46.450Z,2.10
2023-11-12T03:25:13.251Z,2.10
2023-11-12T03:27:40.352Z,3.40
2023-11-12T03:30:09.960Z,4.40
2023-11-12T03:32:36.992Z,3.30
2023-11-12T03:35:05.348Z,2.00
2023-11-12T03:37:32.121Z,6.60
2023-11-12T03:39:58.921Z,2.00
2023-11-12T03:42:25.843Z,3.50
2023-11-12T03:44:52.789Z,1.50
2023-11-12T03:47:19.942Z,1.20
2023-11-12T03:49:46.890Z,1.30
2023-11-12T03:52:14.052Z,1.90
2023-11-12T03:54:41.616Z,1.80
2023-11-12T03:57:10.336Z,2.30
2023-11-12T03:59:37.561Z,2.70
2023-11-12T04:02:05.108Z,2.30
2023-11-12T04:04:32.782Z,2.30
2023-11-12T04:07:00.228Z,3.00
2023-11-12T04:09:27.745Z,2.10
2023-11-12T04:11:54.929Z,2.50
2023-11-12T04:14:22.076Z,2.90
2023-11-12T04:16:49.155Z,2.60
2023-11-12T04:19:16.229Z,3.50
2023-11-12T04:21:46.901Z,1.80
2023-11-12T04:24:14.572Z,1.70
2023-11-12T04:26:41.524Z,4.10
2023-11-12T04:29:09.494Z,2.10
2023-11-12T04:31:37.171Z,1.30
2023-11-12T04:34:04.640Z,2.30
2023-11-12T04:36:35.975Z,1.80
2023-11-12T04:39:04.235Z,3.30
2023-11-12T04:41:31.167Z,2.10
2023-11-12T04:43:57.971Z,2.10
2023-11-12T04:46:26.041Z,1.90
2023-11-12T04:48:53.427Z,1.80
2023-11-12T04:51:21.744Z,4.40
2023-11-12T04:53:49.436Z,1.50
2023-11-12T04:56:16.543Z,2.00
2023-11-12T04:58:43.577Z,1.60
2023-11-12T05:01:10.433Z,6.70
2023-11-12T05:03:37.492Z,2.00
2023-11-12T05:06:05.541Z,2.60
2023-11-12T05:08:32.444Z,9.70
2023-11-12T05:10:59.676Z,72.70
2023-11-12T05:13:26.815Z,32.40
2023-11-12T05:15:53.968Z,1.70
2023-11-12T05:18:22.035Z,2.30
2023-11-12T05:20:49.002Z,6.20
2023-11-12T05:23:16.010Z,7.00
2023-11-12T05:25:43.256Z,5.90
2023-11-12T05:28:10.305Z,3.80
2023-11-12T05:30:38.226Z,3.60
2023-11-12T05:33:05.466Z,3.00
2023-11-12T05:35:32.484Z,4.30
2023-11-12T05:37:59.423Z,17.20
2023-11-12T05:40:26.458Z,49.20
2023-11-12T05:42:53.184Z,79.40
2023-11-12T05:45:20.046Z,130.50
2023-11-12T05:47:47.012Z,219.40
2023-11-12T05:50:15.288Z,16.20
2023-11-12T05:52:43.047Z,6.40
2023-11-12T05:55:11.514Z,8.20
2023-11-12T05:57:38.560Z,3.60
2023-11-12T06:00:11.456Z,3.20
2023-11-12T06:02:41.210Z,1.80
2023-11-12T06:05:08.624Z,3.50
2023-11-12T06:07:35.550Z,2.00
2023-11-12T06:10:03.631Z,6.20
2023-11-12T06:12:30.916Z,2.40
2023-11-12T06:14:58.026Z,2.20
2023-11-12T06:17:27.845Z,1.20
2023-11-12T06:19:54.871Z,4.70
2023-11-12T06:22:21.901Z,3.20
2023-11-12T06:24:48.945Z,2.40
2023-11-12T06:27:16.043Z,2.60
2023-11-12T06:29:44.500Z,2.30
2023-11-12T06:32:11.261Z,5.90
2023-11-12T06:34:38.197Z,1.10
2023-11-12T06:37:05.045Z,5.10
2023-11-12T06:39:32.144Z,2.30
2023-11-12T06:41:59.749Z,4.30
2023-11-12T06:44:27.103Z,2.40
2023-11-12T06:46:54.102Z,1.60
2023-11-12T06:49:21.099Z,2.30
2023-11-12T06:51:47.968Z,2.70
2023-11-12T06:54:14.820Z,1.60
2023-11-12T06:56:41.846Z,1.20
2023-11-12T06:59:08.573Z,1.80
2023-11-12T07:01:37.977Z,1.70
2023-11-12T07:04:06.019Z,4.90
2023-11-12T07:06:33.983Z,3.30
2023-11-12T07:09:00.976Z,1.10
2023-11-12T07:11:28.479Z,1.80
2023-11-12T07:13:55.583Z,2.00
2023-11-12T07:16:23.982Z,2.10
2023-11-12T07:18:54.324Z,4.00
2023-11-12T07:21:30.957Z,4.70
2023-11-12T07:23:58.735Z,3.60
2023-11-12T07:26:26.091Z,2.40
2023-11-12T07:28:54.427Z,3.00
2023-11-12T07:31:23.816Z,3.90
2023-11-12T07:33:52.130Z,2.60
2023-11-12T07:36:19.285Z,2.10
2023-11-12T07:38:46.215Z,1.90
2023-11-12T07:41:12.984Z,3.80
2023-11-12T07:43:39.906Z,4.40
2023-11-12T07:46:07.826Z,4.30
2023-11-12T07:48:35.762Z,2.00
2023-11-12T07:51:02.744Z,4.00
2023-11-12T07:53:29.940Z,1.70
2023-11-12T07:55:56.978Z,1.50
2023-11-12T07:58:23.922Z,4.20
2023-11-12T08:00:50.797Z,1.30
2023-11-12T08:03:17.633Z,2.40
2023-11-12T08:05:46.699Z,1.30
2023-11-12T08:08:13.648Z,5.40
2023-11-12T08:10:40.815Z,2.10
2023-11-12T08:13:08.255Z,1.30
2023-11-12T08:15:35.130Z,2.40
2023-11-12T08:18:01.984Z,3.10
2023-11-12T08:20:29.079Z,1.70
2023-11-12T08:22:55.933Z,1.30
2023-11-12T08:25:22.986Z,3.60
2023-11-12T08:27:49.948Z,9.70
2023-11-12T08:30:17.385Z,1.50
2023-11-12T08:32:44.675Z,1.10
2023-11-12T08:35:11.703Z,1.00
2023-11-12T08:37:38.940Z,5.30
2023-11-12T08:40:08.084Z,1.70
2023-11-12T08:42:35.214Z,2.40
2023-11-12T08:45:04.972Z,1.40
2023-11-12T08:47:32.393Z,0.90
2023-11-12T08:49:59.812Z,4.70
2023-11-12T08:52:26.874Z,3.40
2023-11-12T08:54:54.132Z,1.90
2023-11-12T08:57:21.173Z,2.30
2023-11-12T08:59:48.054Z,1.70
2023-11-12T09:02:15.443Z,0.70
2023-11-12T09:04:42.376Z,3.90
2023-11-12T09:07:09.548Z,3.90
2023-11-12T09:09:36.679Z,1.90
2023-11-12T09:12:04.769Z,3.40
2023-11-12T09:14:31.818Z,3.00
2023-11-12T09:16:59.578Z,7.20
2023-11-12T09:19:26.836Z,18.70
2023-11-12T09:21:54.106Z,6.00
2023-11-12T09:24:20.958Z,11.00
2023-11-12T09:26:48.298Z,9.60
2023-11-12T09:29:15.229Z,3.70
2023-11-12T09:31:42.273Z,2.90
2023-11-12T09:34:09.352Z,2.80
2023-11-12T09:36:36.293Z,2.90
2023-11-12T09:39:04.554Z,1.10
2023-11-12T09:41:32.313Z,5.50
2023-11-12T09:44:04.376Z,9.70
2023-11-12T09:46:32.070Z,4.10
2023-11-12T09:48:59.502Z,3.20
2023-11-12T09:51:27.815Z,1.50
2023-11-12T09:53:55.432Z,2.30
2023-11-12T09:56:25.310Z,0.90
2023-11-12T09:58:53.419Z,1.60
2023-11-12T10:01:21.079Z,1.20
2023-11-12T10:03:49.797Z,1.70
2023-11-12T10:06:21.440Z,3.50
2023-11-12T10:08:50.526Z,1.20
2023-11-12T10:11:23.189Z,3.80
2023-11-12T10:14:00.804Z,1.30
2023-11-12T10:16:32.871Z,3.70
2023-11-12T10:19:18.028Z,1.50
2023-11-12T10:21:59.108Z,1.30
2023-11-12T10:24:30.846Z,4.10
2023-11-12T10:27:02.959Z,32.70
2023-11-12T10:29:30.484Z,18.10
2023-11-12T10:32:00.102Z,3.80
2023-11-12T10:34:27.851Z,1.10
2023-11-12T10:37:14.884Z,1.50
2023-11-12T10:39:44.154Z,3.10
2023-11-12T10:44:56.501Z,2.10
2023-11-12T10:47:25.227Z,1.70
2023-11-12T10:49:53.452Z,1.80
2023-11-12T10:52:20.504Z,2.50
2023-11-12T10:54:48.111Z,1.90
2023-11-12T10:57:15.522Z,1.50
2023-11-12T10:59:45.324Z,0.50
2023-11-12T11:02:20.650Z,2.30
2023-11-12T11:07:16.814Z,2.30
2023-11-12T11:09:44.785Z,1.40
2023-11-12T11:12:13.862Z,2.30
2023-11-12T11:14:40.821Z,1.50
2023-11-12T11:17:09.089Z,2.70
2023-11-12T11:19:45.470Z,1.80
2023-11-12T11:22:27.196Z,3.90
2023-11-12T11:24:55.884Z,3.90
2023-11-12T11:27:26.891Z,1.90
2023-11-12T11:30:25.291Z,1.80
2023-11-12T11:32:55.347Z,1.90
2023-11-12T11:35:24.981Z,1.50
2023-11-12T11:38:10.199Z,1.40
2023-11-12T11:40:38.596Z,2.70
2023-11-12T11:43:24.115Z,4.40
2023-11-12T11:46:18.584Z,3.60
2023-11-12T11:48:48.650Z,1.90
2023-11-12T11:51:31.369Z,0.70
2023-11-12T11:54:03.710Z,2.40
2023-11-12T11:56:31.694Z,4.30
2023-11-12T11:58:59.052Z,2.50
2023-11-12T12:01:26.911Z,1.00
2023-11-12T12:04:06.923Z,0.70
2023-11-12T12:06:34.506Z,3.40
2023-11-12T12:09:01.774Z,2.70
2023-11-12T12:11:29.018Z,1.30
2023-11-12T12:14:01.585Z,9.20
2023-11-12T12:16:29.382Z,1.50
2023-11-12T12:18:57.390Z,4.50
2023-11-12T12:21:25.327Z,1.40
2023-11-12T12:23:53.059Z,0.70
2023-11-12T12:26:25.343Z,0.90
2023-11-12T12:28:53.395Z,1.00
2023-11-12T12:31:20.880Z,1.40
2023-11-12T12:34:08.748Z,1.30
2023-11-12T12:36:36.733Z,2.60
2023-11-12T12:39:11.627Z,2.00
2023-11-12T12:41:38.608Z,1.00
2023-11-12T12:44:07.629Z,2.80
2023-11-12T12:46:48.123Z,1.80
2023-11-12T12:49:33.163Z,1.20
2023-11-12T12:52:03.035Z,1.50
2023-11-12T12:54:31.369Z,3.20
2023-11-12T12:57:00.147Z,0.70
2023-11-12T12:59:38.237Z,1.50
2023-11-12T13:02:06.339Z,2.80
2023-11-12T13:04:35.811Z,1.90
2023-11-12T13:07:07.273Z,2.60
2023-11-12T13:09:34.399Z,8.20
2023-11-12T13:12:04.546Z,3.20
2023-11-12T13:14:34.762Z,2.60
2023-11-12T13:17:01.922Z,3.30
2023-11-12T13:19:28.740Z,4.90
2023-11-12T13:22:02.224Z,1.40
2023-11-12T13:24:30.925Z,4.90
2023-11-12T13:26:58.391Z,0.80
2023-11-12T13:29:27.805Z,1.80
2023-11-12T13:31:57.436Z,0.80
2023-11-12T13:34:24.687Z,1.30
2023-11-12T13:36:52.029Z,2.40
2023-11-12T13:39:19.690Z,7.60
2023-11-12T13:41:47.756Z,4.00
2023-11-12T13:44:15.153Z,0.90
2023-11-12T13:46:42.169Z,1.10
2023-11-12T13:49:09.984Z,2.80
2023-11-12T13:51:40.466Z,1.50
2023-11-12T13:54:11.060Z,1.40
2023-11-12T13:56:39.766Z,2.30
2023-11-12T13:59:06.707Z,5.00
2023-11-12T14:01:33.839Z,3.20
2023-11-12T14:04:01.493Z,3.80
2023-11-12T14:06:28.795Z,6.50
2023-11-12T14:08:56.733Z,6.30
2023-11-12T14:11:23.899Z,3.70
2023-11-12T14:13:51.646Z,2.10
2023-11-12T14:16:18.882Z,2.30
2023-11-12T14:18:46.108Z,1.60
2023-11-12T14:21:13.203Z,1.90
2023-11-12T14:23:40.352Z,4.50
2023-11-12T14:26:08.783Z,3.60
2023-11-12T14:28:36.304Z,7.90
2023-11-12T14:31:07.484Z,4.50
2023-11-12T14:33:35.297Z,3.30
2023-11-12T14:36:02.663Z,4.70
2023-11-12T14:38:30.010Z,10.50
2023-11-12T14:40:56.952Z,166.50
2023-11-12T14:43:24.098Z,20.60
2023-11-12T14:45:51.284Z,41.10
2023-11-12T14:48:20.035Z,10.70
2023-11-12T14:50:48.015Z,16.40
2023-11-12T14:53:16.389Z,2.80
2023-11-12T14:55:43.251Z,3.30
2023-11-12T14:58:10.526Z,2.40
2023-11-12T15:00:37.535Z,2.40
2023-11-12T15:03:07.946Z,3.40
2023-11-12T15:05:36.073Z,5.20
2023-11-12T15:08:04.102Z,2.20
2023-11-12T15:10:31.041Z,4.80
2023-11-12T15:12:58.110Z,4.10
2023-11-12T15:15:25.362Z,3.60
2023-11-12T15:17:52.538Z,4.60
2023-11-12T15:20:19.545Z,4.70
2023-11-12T15:22:47.205Z,5.30
2023-11-12T15:25:14.726Z,4.20
2023-11-12T15:27:46.168Z,7.60
2023-11-12T15:30:14.662Z,9.70
2023-11-12T15:32:43.261Z,20.10
2023-11-12T15:35:13.998Z,15.10
2023-11-12T15:37:41.270Z,12.10
2023-11-12T15:40:14.973Z,9.00
2023-11-12T15:42:44.019Z,4.70
2023-11-12T15:45:12.481Z,6.40
2023-11-12T15:47:40.413Z,9.40
2023-11-12T15:50:13.020Z,5.90
2023-11-12T15:52:40.962Z,4.30
2023-11-12T15:55:09.361Z,4.20
2023-11-12T15:57:37.738Z,4.60
2023-11-12T16:00:13.478Z,4.20
2023-11-12T16:02:41.562Z,6.30
2023-11-12T16:05:10.443Z,7.60
2023-11-12T16:07:40.043Z,8.20
2023-11-12T16:10:09.392Z,26.60
2023-11-12T16:12:37.334Z,9.90
2023-11-12T16:15:07.540Z,8.40
2023-11-12T16:17:34.407Z,4.90
2023-11-12T16:20:01.545Z,5.30
2023-11-12T16:22:28.692Z,5.50
2023-11-12T16:24:55.689Z,5.50
2023-11-12T16:27:22.688Z,7.70
2023-11-12T16:29:49.726Z,6.00
2023-11-12T16:32:20.503Z,6.40
2023-11-12T16:34:47.283Z,5.80
2023-11-12T16:37:15.162Z,6.50
2023-11-12T16:39:47.001Z,7.90
2023-11-12T16:42:20.511Z,5.60
2023-11-12T16:44:47.578Z,7.50
2023-11-12T16:47:17.110Z,7.30
2023-11-12T16:49:45.963Z,5.20
2023-11-12T16:52:13.419Z,4.40
2023-11-12T16:54:40.394Z,5.10
2023-11-12T16:57:10.479Z,5.60
2023-11-12T16:59:41.725Z,5.70
2023-11-12T17:02:10.949Z,8.50
2023-11-12T17:04:38.994Z,10.50
2023-11-12T17:07:11.195Z,9.60
2023-11-12T17:09:39.272Z,9.00
2023-11-12T17:12:07.018Z,9.30
2023-11-12T17:14:34.265Z,11.70
2023-11-12T17:17:01.091Z,16.50
2023-11-12T17:19:28.664Z,14.80
2023-11-12T17:21:57.266Z,16.70
2023-11-12T17:24:24.407Z,17.40
2023-11-12T17:26:51.799Z,20.30
2023-11-12T17:29:20.760Z,21.40
2023-11-12T17:31:51.380Z,19.60
2023-11-12T17:34:19.549Z,29.50
2023-11-12T17:36:48.993Z,25.90
2023-11-12T17:39:22.096Z,28.10
2023-11-12T17:41:50.733Z,31.60
2023-11-12T17:44:17.977Z,24.70
2023-11-12T17:46:45.318Z,26.80
2023-11-12T17:49:12.876Z,26.20
2023-11-12T17:51:40.905Z,28.80
2023-11-12T17:54:07.918Z,37.60
2023-11-12T17:56:37.626Z,46.30
2023-11-12T17:59:05.811Z,51.70
2023-11-12T18:01:33.065Z,65.90
2023-11-12T18:04:02.735Z,68.70
2023-11-12T18:06:29.910Z,42.10
2023-11-12T18:08:56.687Z,50.30
2023-11-12T18:11:23.972Z,42.60
2023-11-12T18:13:50.871Z,23.50
2023-11-12T18:16:20.624Z,17.50
2023-11-12T18:18:48.130Z,11.80
2023-11-12T18:21:15.883Z,12.20
2023-11-12T18:23:43.404Z,11.10
2023-11-12T18:26:12.027Z,10.40
2023-11-12T18:28:39.100Z,9.30
2023-11-12T18:31:06.660Z,10.30
2023-11-12T18:33:35.748Z,13.30
2023-11-12T18:36:02.778Z,11.90
2023-11-12T18:38:29.639Z,15.40
2023-11-12T18:40:56.777Z,21.80
2023-11-12T18:43:25.356Z,21.30
2023-11-12T18:45:56.632Z,20.20
2023-11-12T18:48:24.568Z,19.40
2023-11-12T18:50:52.221Z,17.70
2023-11-12T18:53:21.943Z,21.40
2023-11-12T18:55:51.654Z,22.10
2023-11-12T18:58:18.513Z,20.50
2023-11-12T19:00:45.927Z,20.50
2023-11-12T19:03:13.422Z,16.50
2023-11-12T19:05:41.686Z,23.00
2023-11-12T19:08:13.865Z,19.80
2023-11-12T19:10:40.900Z,19.70
2023-11-12T19:13:09.023Z,27.90
2023-11-12T19:15:39.510Z,76.70
2023-11-12T19:18:06.620Z,62.60
2023-11-12T19:20:40.666Z,66.00
2023-11-12T19:23:07.714Z,59.10
2023-11-12T19:25:40.387Z,44.50
2023-11-12T19:28:07.210Z,32.60
2023-11-12T19:30:35.144Z,22.80
2023-11-12T19:33:02.754Z,15.10
2023-11-12T19:35:29.824Z,28.90
2023-11-12T19:37:59.819Z,24.40
2023-11-12T19:40:26.705Z,34.70
2023-11-12T19:42:54.173Z,14.60
2023-11-12T19:45:21.483Z,13.30
2023-11-12T19:47:54.686Z,13.20
2023-11-12T19:50:24.326Z,12.50
2023-11-12T19:52:51.432Z,11.10
2023-11-12T19:55:19.625Z,11.80
2023-11-12T19:57:46.590Z,17.00
2023-11-12T20:00:14.305Z,12.60
2023-11-12T20:02:41.320Z,13.70
2023-11-12T20:05:08.990Z,9.80
2023-11-12T20:07:36.237Z,9.30
2023-11-12T20:10:04.692Z,8.60
2023-11-12T20:12:31.596Z,18.20
2023-11-12T20:15:02.030Z,23.70
2023-11-12T20:17:29.518Z,24.80
2023-11-12T20:19:56.634Z,40.30
2023-11-12T20:22:23.580Z,33.50
2023-11-12T20:24:51.006Z,18.50
2023-11-12T20:27:19.420Z,11.80
2023-11-12T20:29:47.408Z,8.90
2023-11-12T20:32:15.804Z,8.30
2023-11-12T20:34:45.168Z,5.60
2023-11-12T20:37:14.257Z,8.50
2023-11-12T20:39:41.347Z,6.00
2023-11-12T20:42:11.230Z,8.00
2023-11-12T20:47:11.727Z,8.00
2023-11-12T20:49:43.529Z,11.40
2023-11-12T20:52:10.522Z,12.30
2023-11-12T20:54:40.448Z,13.90
2023-11-12T20:59:34.875Z,8.60
2023-11-12T21:02:10.256Z,8.30
2023-11-12T21:04:45.607Z,9.90
2023-11-12T21:07:13.351Z,8.00
2023-11-12T21:09:40.299Z,10.70
2023-11-12T21:12:08.569Z,10.60
2023-11-12T21:14:35.725Z,20.10
2023-11-12T21:17:02.844Z,16.50
2023-11-12T21:19:29.918Z,9.90
2023-11-12T21:21:56.777Z,6.90
2023-11-12T21:24:23.702Z,6.90
2023-11-12T21:26:50.916Z,22.70
2023-11-12T21:29:18.527Z,7.20
2023-11-12T21:31:46.541Z,5.50
2023-11-12T21:34:14.641Z,10.10
2023-11-12T21:36:42.091Z,8.80
2023-11-12T21:39:11.117Z,49.20
2023-11-12T21:44:09.205Z,10.80
2023-11-12T21:46:36.373Z,8.50
2023-11-12T21:49:05.340Z,5.20
2023-11-12T21:51:33.012Z,5.00
2023-11-12T21:53:59.843Z,5.50
2023-11-12T21:56:28.428Z,5.60
2023-11-12T21:58:55.275Z,5.00
2023-11-12T22:01:24.955Z,4.20
2023-11-12T22:03:52.080Z,7.40
2023-11-12T22:06:19.688Z,4.50
2023-11-12T22:08:46.523Z,4.80
2023-11-12T22:11:13.473Z,4.40
2023-11-12T22:13:41.039Z,7.70
2023-11-12T22:16:09.469Z,5.00
2023-11-12T22:18:36.575Z,9.60
2023-11-12T22:21:05.052Z,9.70
2023-11-12T22:23:32.002Z,9.50
2023-11-12T22:25:58.999Z,10.90
2023-11-12T22:28:25.905Z,14.60
2023-11-12T22:30:53.093Z,12.60
2023-11-12T22:33:20.078Z,22.00
2023-11-12T22:35:47.847Z,23.30
2023-11-12T22:38:14.796Z,20.10
2023-11-12T22:40:42.562Z,15.60
2023-11-12T22:43:09.623Z,15.10
2023-11-12T22:45:37.574Z,9.40
2023-11-12T22:48:05.500Z,13.60
2023-11-12T22:50:32.828Z,13.40
2023-11-12T22:52:59.845Z,20.70
2023-11-12T22:55:26.748Z,18.70
2023-11-12T22:57:53.788Z,19.70
2023-11-12T23:00:40.600Z,10.60
2023-11-12T23:03:15.820Z,5.70
2023-11-12T23:05:52.154Z,7.10
2023-11-12T23:10:49.015Z,7.00
2023-11-12T23:13:18.136Z,5.00
2023-11-12T23:15:45.717Z,7.00
2023-11-12T23:18:13.592Z,4.60
2023-11-12T23:20:40.703Z,4.30
2023-11-12T23:23:08.857Z,6.90
2023-11-12T23:25:35.814Z,5.20
2023-11-12T23:28:03.430Z,6.00
2023-11-12T23:30:31.179Z,6.20
2023-11-12T23:32:58.016Z,5.70
2023-11-12T23:35:26.754Z,5.30
2023-11-12T23:37:54.068Z,3.70
2023-11-12T23:40:21.085Z,3.30
2023-11-12T23:42:48.185Z,3.60
2023-11-12T23:45:15.408Z,4.20
2023-11-12T23:47:42.410Z,3.50
2023-11-12T23:50:10.678Z,3.50
2023-11-12T23:52:37.830Z,3.60
2023-11-12T23:55:06.009Z,6.00
2023-11-12T23:57:34.595Z,30.10
